createdAt,value
2022-09-12T00:01:27.245Z,9.42
2022-09-12T00:04:00.311Z,9.41
2022-09-12T00:06:35.664Z,9.37
2022-09-12T00:09:10.295Z,9.36
2022-09-12T00:11:41.020Z,9.33
2022-09-12T00:14:11.870Z,9.29
2022-09-12T00:16:41.351Z,9.27
2022-09-12T00:19:10.944Z,9.22
2022-09-12T00:21:41.083Z,9.25
2022-09-12T00:24:10.802Z,9.02
2022-09-12T00:26:38.860Z,9.25
2022-09-12T00:29:06.947Z,9.00
2022-09-12T00:31:35.478Z,9.22
2022-09-12T00:34:03.363Z,9.24
2022-09-12T00:36:31.485Z,9.02
2022-09-12T00:38:59.586Z,9.25
2022-09-12T00:41:28.954Z,9.26
2022-09-12T00:44:11.002Z,9.07
2022-09-12T00:47:10.260Z,9.07
2022-09-12T00:50:00.254Z,9.27
2022-09-12T00:52:44.696Z,9.29
2022-09-12T00:55:41.563Z,9.22
2022-09-12T00:58:23.602Z,9.28
2022-09-12T01:00:53.763Z,9.17
2022-09-12T01:03:23.921Z,9.06
2022-09-12T01:06:09.678Z,9.31
2022-09-12T01:08:38.916Z,9.08
2022-09-12T01:11:09.592Z,9.28
2022-09-12T01:13:38.101Z,9.24
2022-09-12T01:16:07.732Z,9.33
2022-09-12T01:19:25.680Z,9.34
2022-09-12T01:22:28.464Z,9.32
2022-09-12T01:25:22.066Z,9.31
2022-09-12T01:28:12.729Z,9.08
2022-09-12T01:31:01.210Z,9.28
2022-09-12T01:34:06.553Z,9.35
2022-09-12T01:37:10.753Z,9.34
2022-09-12T01:40:07.209Z,9.29
2022-09-12T01:42:47.165Z,9.40
2022-09-12T01:45:34.976Z,9.42
2022-09-12T01:48:21.911Z,9.22
2022-09-12T01:51:37.060Z,9.25
2022-09-12T01:54:22.495Z,9.25
2022-09-12T01:56:57.626Z,9.42
2022-09-12T01:59:47.756Z,9.24
2022-09-12T02:02:26.108Z,9.53
2022-09-12T02:05:17.613Z,9.49
2022-09-12T02:07:51.921Z,9.29
2022-09-12T02:10:23.653Z,9.49
2022-09-12T02:12:59.722Z,9.28
2022-09-12T02:15:41.208Z,9.52
2022-09-12T02:18:13.217Z,9.47
2022-09-12T02:20:48.410Z,9.28
2022-09-12T02:23:27.851Z,9.32
2022-09-12T02:26:02.307Z,9.55
2022-09-12T02:28:37.065Z,9.26
2022-09-12T02:31:33.936Z,9.52
2022-09-12T02:34:41.331Z,9.07
2022-09-12T02:38:09.265Z,9.50
2022-09-12T02:40:37.945Z,9.37
2022-09-12T02:43:07.229Z,9.51
2022-09-12T02:45:36.823Z,9.48
2022-09-12T02:48:24.745Z,9.25
2022-09-12T02:50:53.516Z,9.28
2022-09-12T02:53:22.407Z,9.52
2022-09-12T02:55:51.787Z,9.51
2022-09-12T02:58:27.737Z,9.50
2022-09-12T03:01:10.232Z,9.30
2022-09-12T03:03:59.576Z,9.54
2022-09-12T03:06:36.082Z,9.52
2022-09-12T03:09:41.001Z,9.55
2022-09-12T03:12:19.349Z,9.53
2022-09-12T03:15:22.791Z,9.28
2022-09-12T03:18:17.421Z,9.40
2022-09-12T03:21:18.425Z,9.54
2022-09-12T03:24:01.614Z,9.56
2022-09-12T03:26:55.605Z,9.29
2022-09-12T03:29:26.316Z,9.54
2022-09-12T03:31:58.303Z,9.55
2022-09-12T03:34:28.531Z,9.32
2022-09-12T03:36:57.013Z,9.53
2022-09-12T03:39:27.098Z,9.52
2022-09-12T03:41:56.053Z,9.26
2022-09-12T03:44:24.656Z,9.48
2022-09-12T03:46:53.098Z,9.49
2022-09-12T03:49:20.930Z,9.48
2022-09-12T03:51:48.960Z,9.11
2022-09-12T03:54:17.008Z,9.50
2022-09-12T03:56:45.546Z,9.46
2022-09-12T03:59:13.827Z,9.51
2022-09-12T04:01:42.644Z,9.49
2022-09-12T04:04:10.407Z,9.51
2022-09-12T04:06:38.452Z,9.50
2022-09-12T04:09:06.545Z,9.50
2022-09-12T04:11:35.931Z,9.28
2022-09-12T04:14:04.047Z,9.51
2022-09-12T04:16:32.633Z,9.49
2022-09-12T04:19:00.604Z,9.51
2022-09-12T04:21:28.503Z,9.49
2022-09-12T04:23:56.983Z,9.54
2022-09-12T04:26:24.819Z,9.52
2022-09-12T04:28:55.129Z,9.56
2022-09-12T04:31:23.797Z,9.33
2022-09-12T04:34:00.860Z,9.56
2022-09-12T04:36:29.999Z,9.52
2022-09-12T04:38:58.704Z,9.54
2022-09-12T04:41:31.325Z,9.58
2022-09-12T04:44:03.685Z,9.59
2022-09-12T04:46:36.428Z,9.51
2022-09-12T04:49:05.589Z,9.58
2022-09-12T04:51:37.446Z,9.48
2022-09-12T04:54:16.297Z,9.48
2022-09-12T04:56:47.820Z,9.30
2022-09-12T04:59:17.738Z,9.59
2022-09-12T05:01:45.759Z,9.55
2022-09-12T05:04:14.449Z,9.63
2022-09-12T05:06:43.569Z,9.59
2022-09-12T05:09:14.332Z,9.39
2022-09-12T05:12:03.759Z,9.63
2022-09-12T05:14:33.553Z,9.41
2022-09-12T05:17:02.443Z,9.59
2022-09-12T05:19:31.290Z,9.60
2022-09-12T05:21:59.934Z,9.59
2022-09-12T05:24:29.028Z,9.66
2022-09-12T05:26:57.050Z,9.43
2022-09-12T05:29:25.318Z,9.58
2022-09-12T05:31:54.040Z,9.66
2022-09-12T05:34:22.589Z,9.41
2022-09-12T05:36:50.452Z,9.52
2022-09-12T05:39:18.913Z,9.65
2022-09-12T05:41:47.420Z,9.40
2022-09-12T05:44:15.635Z,9.68
2022-09-12T05:46:47.037Z,9.68
2022-09-12T05:49:15.014Z,9.64
2022-09-12T05:51:45.753Z,9.42
2022-09-12T05:54:18.120Z,9.63
2022-09-12T05:56:47.077Z,9.64
2022-09-12T05:59:22.114Z,9.65
2022-09-12T06:01:50.424Z,9.59
2022-09-12T06:04:18.573Z,9.61
2022-09-12T06:06:47.460Z,9.65
2022-09-12T06:09:17.243Z,9.42
2022-09-12T06:11:46.556Z,9.67
2022-09-12T06:14:17.823Z,9.55
2022-09-12T06:16:47.568Z,9.42
2022-09-12T06:19:19.279Z,9.64
2022-09-12T06:21:49.603Z,9.46
2022-09-12T06:24:19.078Z,9.37
2022-09-12T06:26:48.567Z,9.69
2022-09-12T06:29:16.998Z,9.69
2022-09-12T06:31:45.559Z,9.67
2022-09-12T06:34:16.356Z,9.69
2022-09-12T06:36:47.267Z,9.68
2022-09-12T06:39:21.222Z,9.43
2022-09-12T06:41:51.741Z,9.65
2022-09-12T06:44:22.794Z,9.62
2022-09-12T06:46:51.573Z,9.61
2022-09-12T06:49:19.461Z,9.74
2022-09-12T06:51:48.598Z,9.76
2022-09-12T06:54:20.204Z,9.80
2022-09-12T06:56:48.102Z,9.58
2022-09-12T06:59:16.092Z,9.84
2022-09-12T07:01:47.471Z,9.86
2022-09-12T07:04:16.152Z,9.87
2022-09-12T07:06:45.071Z,9.84
2022-09-12T07:09:17.141Z,9.92
2022-09-12T07:11:46.454Z,9.90
2022-09-12T07:14:15.475Z,9.99
2022-09-12T07:16:44.170Z,9.62
2022-09-12T07:19:12.690Z,9.96
2022-09-12T07:21:41.720Z,9.86
2022-09-12T07:24:10.949Z,10.01
2022-09-12T07:26:42.498Z,10.01
2022-09-12T07:29:36.851Z,9.92
2022-09-12T07:32:07.254Z,9.65
2022-09-12T07:34:35.776Z,9.76
2022-09-12T07:37:04.017Z,9.97
2022-09-12T07:39:33.973Z,10.02
2022-09-12T07:42:02.075Z,9.99
2022-09-12T07:44:29.864Z,9.66
2022-09-12T07:46:57.987Z,10.03
2022-09-12T07:49:26.101Z,9.99
2022-09-12T07:51:54.090Z,9.79
2022-09-12T07:54:22.437Z,9.99
2022-09-12T07:56:50.406Z,10.00
2022-09-12T07:59:35.347Z,9.81
2022-09-12T08:02:06.786Z,10.00
2022-09-12T08:04:36.527Z,9.99
2022-09-12T08:07:04.562Z,10.00
2022-09-12T08:09:32.776Z,9.81
2022-09-12T08:12:00.756Z,10.03
2022-09-12T08:14:28.876Z,10.00
2022-09-12T08:16:56.939Z,9.25
2022-09-12T08:19:24.755Z,10.13
2022-09-12T08:21:53.988Z,9.93
2022-09-12T08:24:22.115Z,10.23
2022-09-12T08:26:50.028Z,10.19
2022-09-12T08:29:17.922Z,10.17
2022-09-12T08:31:47.018Z,10.20
2022-09-12T08:34:17.145Z,10.16
2022-09-12T08:36:45.092Z,10.03
2022-09-12T08:39:14.851Z,10.20
2022-09-12T08:41:56.642Z,10.25
2022-09-12T08:44:36.297Z,10.25
2022-09-12T08:47:34.617Z,10.45
2022-09-12T08:50:14.861Z,10.43
2022-09-12T08:53:17.195Z,10.34
2022-09-12T08:55:56.370Z,10.11
2022-09-12T08:58:29.580Z,10.43
2022-09-12T09:01:33.141Z,10.44
2022-09-12T09:04:28.991Z,10.23
2022-09-12T09:07:09.439Z,10.61
2022-09-12T09:09:44.625Z,10.65
2022-09-12T09:12:30.568Z,10.65
2022-09-12T09:15:31.989Z,10.77
2022-09-12T09:18:11.149Z,10.66
2022-09-12T09:20:53.189Z,10.83
2022-09-12T09:23:35.397Z,10.73
2022-09-12T09:26:27.460Z,10.65
2022-09-12T09:29:06.264Z,10.69
2022-09-12T09:31:39.144Z,10.76
2022-09-12T09:34:26.443Z,10.97
2022-09-12T09:37:08.797Z,11.05
2022-09-12T09:39:58.461Z,11.19
2022-09-12T09:42:38.330Z,11.08
2022-09-12T09:45:22.463Z,11.16
2022-09-12T09:48:20.022Z,11.31
2022-09-12T09:50:50.144Z,11.39
2022-09-12T09:54:02.888Z,11.37
2022-09-12T09:56:40.910Z,11.42
2022-09-12T09:59:15.482Z,11.21
2022-09-12T10:02:23.624Z,11.15
2022-09-12T10:04:58.864Z,11.18
2022-09-12T10:07:27.493Z,11.13
2022-09-12T10:10:18.678Z,11.43
2022-09-12T10:12:47.020Z,11.16
2022-09-12T10:15:23.670Z,11.71
2022-09-12T10:17:53.792Z,11.95
2022-09-12T10:20:44.588Z,12.12
2022-09-12T10:23:30.933Z,11.99
2022-09-12T10:26:04.305Z,12.01
2022-09-12T10:28:50.821Z,12.05
2022-09-12T10:31:36.383Z,11.78
2022-09-12T10:34:05.845Z,12.24
2022-09-12T10:36:39.884Z,12.30
2022-09-12T10:39:18.775Z,11.98
2022-09-12T10:41:47.590Z,11.71
2022-09-12T10:44:19.246Z,11.62
2022-09-12T10:46:47.401Z,11.56
2022-09-12T10:49:26.156Z,11.85
2022-09-12T10:51:56.100Z,11.88
2022-09-12T10:54:28.652Z,11.96
2022-09-12T10:57:20.839Z,12.58
2022-09-12T11:00:20.545Z,12.63
2022-09-12T11:02:58.969Z,12.81
2022-09-12T11:05:55.383Z,12.98
2022-09-12T11:09:01.672Z,12.93
2022-09-12T11:11:50.889Z,12.88
2022-09-12T11:15:08.765Z,13.00
2022-09-12T11:18:16.088Z,12.55
2022-09-12T11:20:54.774Z,12.95
2022-09-12T11:23:38.988Z,12.22
2022-09-12T11:26:19.578Z,12.09
2022-09-12T11:29:11.889Z,12.41
2022-09-12T11:31:49.525Z,12.76
2022-09-12T11:34:40.047Z,12.28
2022-09-12T11:37:45.460Z,12.85
2022-09-12T11:40:20.675Z,12.93
2022-09-12T11:42:54.940Z,12.47
2022-09-12T11:45:45.365Z,12.63
2022-09-12T11:48:44.410Z,12.46
2022-09-12T11:51:33.920Z,12.33
2022-09-12T11:54:38.465Z,12.18
2022-09-12T11:57:18.630Z,12.55
2022-09-12T12:00:27.008Z,12.51
2022-09-12T12:03:10.454Z,12.82
2022-09-12T12:05:58.201Z,12.74
2022-09-12T12:08:29.861Z,12.80
2022-09-12T12:11:03.730Z,12.47
2022-09-12T12:13:46.732Z,12.60
2022-09-12T12:16:32.140Z,12.68
2022-09-12T12:19:05.514Z,12.74
2022-09-12T12:21:50.318Z,13.34
2022-09-12T12:24:25.232Z,13.39
2022-09-12T12:27:47.923Z,12.97
2022-09-12T12:30:31.178Z,12.91
2022-09-12T12:33:13.379Z,12.70
2022-09-12T12:36:02.551Z,12.63
2022-09-12T12:38:37.460Z,12.98
2022-09-12T12:41:17.266Z,13.13
2022-09-12T12:43:50.057Z,13.08
2022-09-12T12:46:23.160Z,12.88
2022-09-12T12:49:23.226Z,12.92
2022-09-12T12:51:54.478Z,13.01
2022-09-12T12:54:39.908Z,13.00
2022-09-12T12:57:27.716Z,13.15
2022-09-12T13:00:02.622Z,13.11
2022-09-12T13:02:41.484Z,13.05
2022-09-12T13:05:24.677Z,12.61
2022-09-12T13:08:28.869Z,12.88
2022-09-12T13:11:16.976Z,12.69
2022-09-12T13:13:58.856Z,12.57
2022-09-12T13:16:37.312Z,12.48
2022-09-12T13:19:29.226Z,12.22
2022-09-12T13:22:06.815Z,12.09
2022-09-12T13:24:52.837Z,12.10
2022-09-12T13:27:25.880Z,12.05
2022-09-12T13:30:15.491Z,11.80
2022-09-12T13:32:44.725Z,12.13
2022-09-12T13:35:56.878Z,12.13
2022-09-12T13:38:50.927Z,12.11
2022-09-12T13:42:07.594Z,12.16
2022-09-12T13:44:53.511Z,12.09
2022-09-12T13:47:37.518Z,11.90
2022-09-12T13:50:09.450Z,12.01
2022-09-12T13:52:39.261Z,11.77
2022-09-12T13:55:30.479Z,11.98
2022-09-12T13:58:25.377Z,11.99
2022-09-12T14:01:12.562Z,11.90
2022-09-12T14:04:13.757Z,11.89
2022-09-12T14:06:54.347Z,11.99
2022-09-12T14:09:53.984Z,11.78
2022-09-12T14:12:27.071Z,12.10
2022-09-12T14:14:55.514Z,12.07
2022-09-12T14:17:36.702Z,12.10
2022-09-12T14:20:16.282Z,12.05
2022-09-12T14:22:49.255Z,11.64
2022-09-12T14:25:25.602Z,12.10
2022-09-12T14:27:57.197Z,11.97
2022-09-12T14:30:36.826Z,12.10
2022-09-12T14:33:06.047Z,12.15
2022-09-12T14:35:34.352Z,12.15
2022-09-12T14:38:37.605Z,11.94
2022-09-12T14:41:20.767Z,12.12
2022-09-12T14:43:58.633Z,12.07
2022-09-12T14:46:49.412Z,11.91
2022-09-12T14:49:27.585Z,11.94
2022-09-12T14:52:00.200Z,12.08
2022-09-12T14:54:28.648Z,12.13
2022-09-12T14:57:04.916Z,12.09
2022-09-12T14:59:36.049Z,12.16
2022-09-12T15:02:26.341Z,11.76
2022-09-12T15:05:15.805Z,12.18
2022-09-12T15:07:55.635Z,12.12
2022-09-12T15:10:34.683Z,12.11
2022-09-12T15:13:20.947Z,11.95
2022-09-12T15:15:58.652Z,12.03
2022-09-12T15:18:29.133Z,12.11
2022-09-12T15:21:07.911Z,12.13
2022-09-12T15:23:50.869Z,12.09
2022-09-12T15:26:23.503Z,12.17
2022-09-12T15:28:51.835Z,12.13
2022-09-12T15:31:26.324Z,12.18
2022-09-12T15:33:57.110Z,12.23
2022-09-12T15:36:26.102Z,12.08
2022-09-12T15:38:54.177Z,12.11
2022-09-12T15:41:29.867Z,12.00
2022-09-12T15:43:58.827Z,12.08
2022-09-12T15:46:27.265Z,11.83
2022-09-12T15:48:55.259Z,11.84
2022-09-12T15:51:24.304Z,11.91
2022-09-12T15:53:52.912Z,11.74
2022-09-12T15:56:22.642Z,11.96
2022-09-12T15:58:59.829Z,12.01
2022-09-12T16:01:29.393Z,11.98
2022-09-12T16:03:58.287Z,11.93
2022-09-12T16:06:28.034Z,11.89
2022-09-12T16:08:56.171Z,11.88
2022-09-12T16:11:27.178Z,11.87
2022-09-12T16:13:57.547Z,11.85
2022-09-12T16:16:25.809Z,11.87
2022-09-12T16:18:53.992Z,11.86
2022-09-12T16:21:22.171Z,11.90
2022-09-12T16:23:50.598Z,11.88
2022-09-12T16:26:18.923Z,11.75
2022-09-12T16:28:47.649Z,11.61
2022-09-12T16:31:15.873Z,11.30
2022-09-12T16:33:44.202Z,11.47
2022-09-12T16:36:15.762Z,11.43
2022-09-12T16:38:50.013Z,11.42
2022-09-12T16:41:25.297Z,11.16
2022-09-12T16:43:54.333Z,11.29
2022-09-12T16:46:31.736Z,11.31
2022-09-12T16:48:59.777Z,11.08
2022-09-12T16:51:32.833Z,11.03
2022-09-12T16:54:01.262Z,11.28
2022-09-12T16:56:29.667Z,11.24
2022-09-12T16:58:57.591Z,11.14
2022-09-12T17:01:27.031Z,11.15
2022-09-12T17:03:58.156Z,11.20
2022-09-12T17:06:28.000Z,11.19
2022-09-12T17:09:00.892Z,11.06
2022-09-12T17:11:34.371Z,10.87
2022-09-12T17:14:08.280Z,10.94
2022-09-12T17:16:50.752Z,11.13
2022-09-12T17:19:30.125Z,11.13
2022-09-12T17:21:59.033Z,11.10
2022-09-12T17:24:33.361Z,11.05
2022-09-12T17:27:01.491Z,11.11
2022-09-12T17:29:29.542Z,11.09
2022-09-12T17:31:57.760Z,11.11
2022-09-12T17:34:25.950Z,10.98
2022-09-12T17:36:54.061Z,10.79
2022-09-12T17:39:22.114Z,11.04
2022-09-12T17:41:52.348Z,10.74
2022-09-12T17:44:20.568Z,11.01
2022-09-12T17:46:48.723Z,10.98
2022-09-12T17:49:21.248Z,10.96
2022-09-12T17:51:49.628Z,10.97
2022-09-12T17:54:20.985Z,10.56
2022-09-12T17:56:51.778Z,11.00
2022-09-12T17:59:23.315Z,10.76
2022-09-12T18:02:10.347Z,10.93
2022-09-12T18:04:39.017Z,10.73
2022-09-12T18:07:08.577Z,10.91
2022-09-12T18:09:37.607Z,10.91
2022-09-12T18:12:10.687Z,10.70
2022-09-12T18:14:41.855Z,10.62
2022-09-12T18:17:11.937Z,10.84
2022-09-12T18:19:40.119Z,10.71
2022-09-12T18:22:08.184Z,10.90
2022-09-12T18:24:36.905Z,10.91
2022-09-12T18:27:05.141Z,10.87
2022-09-12T18:29:33.147Z,10.54
2022-09-12T18:32:01.493Z,10.90
2022-09-12T18:34:29.711Z,10.90
2022-09-12T18:36:57.790Z,10.88
2022-09-12T18:39:27.851Z,10.90
2022-09-12T18:41:56.430Z,10.89
2022-09-12T18:44:24.527Z,10.87
2022-09-12T18:46:53.231Z,10.67
2022-09-12T18:49:21.361Z,10.70
2022-09-12T18:51:49.763Z,10.67
2022-09-12T18:54:18.273Z,10.79
2022-09-12T18:56:52.194Z,10.80
2022-09-12T18:59:20.719Z,10.75
2022-09-12T19:01:50.515Z,10.74
2022-09-12T19:04:18.567Z,10.49
2022-09-12T19:06:48.877Z,10.58
2022-09-12T19:09:23.965Z,10.54
2022-09-12T19:11:52.995Z,10.31
2022-09-12T19:14:25.194Z,10.42
2022-09-12T19:16:54.494Z,10.39
2022-09-12T19:19:22.656Z,10.35
2022-09-12T19:21:51.475Z,10.31
2022-09-12T19:24:21.991Z,10.33
2022-09-12T19:26:51.502Z,10.26
2022-09-12T19:29:19.909Z,10.30
2022-09-12T19:31:58.996Z,10.26
2022-09-12T19:34:27.189Z,10.32
2022-09-12T19:36:55.544Z,10.35
2022-09-12T19:39:24.150Z,10.37
2022-09-12T19:41:52.490Z,10.39
2022-09-12T19:44:20.768Z,10.39
2022-09-12T19:46:49.038Z,10.38
2022-09-12T19:49:17.548Z,10.41
2022-09-12T19:51:45.656Z,10.38
2022-09-12T19:54:13.928Z,10.18
2022-09-12T19:56:42.150Z,10.40
2022-09-12T19:59:10.744Z,10.19
2022-09-12T20:01:38.997Z,10.39
2022-09-12T20:04:07.163Z,10.33
2022-09-12T20:06:35.244Z,10.41
2022-09-12T20:09:03.478Z,10.12
2022-09-12T20:11:31.758Z,10.39
2022-09-12T20:13:59.825Z,10.39
2022-09-12T20:16:33.605Z,10.39
2022-09-12T20:19:08.659Z,10.17
2022-09-12T20:21:37.518Z,10.43
2022-09-12T20:24:10.287Z,10.45
2022-09-12T20:26:38.953Z,10.24
2022-09-12T20:29:08.329Z,10.40
2022-09-12T20:31:41.273Z,10.48
2022-09-12T20:34:16.551Z,10.44
2022-09-12T20:36:45.613Z,10.45
2022-09-12T20:39:20.954Z,10.42
2022-09-12T20:41:49.132Z,10.47
2022-09-12T20:44:17.619Z,10.49
2022-09-12T20:46:45.798Z,10.50
2022-09-12T20:49:14.084Z,10.48
2022-09-12T20:51:41.957Z,10.42
2022-09-12T20:54:11.413Z,10.37
2022-09-12T20:56:39.603Z,10.29
2022-09-12T20:59:08.386Z,10.47
2022-09-12T21:01:36.481Z,10.23
2022-09-12T21:04:04.650Z,10.48
2022-09-12T21:06:32.885Z,10.49
2022-09-12T21:09:00.913Z,10.50
2022-09-12T21:11:29.559Z,10.51
2022-09-12T21:13:58.068Z,10.35
2022-09-12T21:16:25.973Z,10.51
2022-09-12T21:18:57.504Z,10.57
2022-09-12T21:21:26.399Z,10.56
2022-09-12T21:23:59.479Z,10.56
2022-09-12T21:26:27.525Z,10.38
2022-09-12T21:28:55.782Z,10.59
2022-09-12T21:31:24.429Z,10.59
2022-09-12T21:33:52.988Z,10.56
2022-09-12T21:36:21.048Z,10.54
2022-09-12T21:38:48.968Z,10.50
2022-09-12T21:41:18.422Z,10.47
2022-09-12T21:43:46.531Z,10.31
2022-09-12T21:46:14.643Z,10.46
2022-09-12T21:48:43.511Z,10.22
2022-09-12T21:51:12.554Z,10.20
2022-09-12T21:53:40.600Z,10.42
2022-09-12T21:56:09.790Z,10.17
2022-09-12T21:58:38.564Z,10.32
2022-09-12T22:01:08.814Z,10.32
2022-09-12T22:03:37.040Z,10.29
2022-09-12T22:06:07.290Z,10.26
2022-09-12T22:08:37.759Z,10.20
2022-09-12T22:11:09.724Z,10.15
2022-09-12T22:13:44.069Z,9.88
2022-09-12T22:16:13.018Z,9.38
2022-09-12T22:18:42.001Z,9.74
2022-09-12T22:21:14.317Z,9.94
2022-09-12T22:24:01.380Z,9.69
2022-09-12T22:26:30.468Z,9.86
2022-09-12T22:28:58.355Z,9.65
2022-09-12T22:31:27.102Z,9.83
2022-09-12T22:33:57.508Z,9.46
2022-09-12T22:36:30.520Z,9.80
2022-09-12T22:38:59.909Z,9.78
2022-09-12T22:41:28.545Z,9.50
2022-09-12T22:43:57.477Z,9.54
2022-09-12T22:46:25.836Z,9.55
2022-09-12T22:48:55.808Z,9.64
2022-09-12T22:51:23.970Z,9.68
2022-09-12T22:53:52.267Z,9.63
2022-09-12T22:56:20.075Z,9.65
2022-09-12T22:58:48.089Z,9.57
2022-09-12T23:01:16.078Z,9.47
2022-09-12T23:03:44.684Z,9.34
2022-09-12T23:06:12.564Z,9.30
2022-09-12T23:08:41.071Z,8.92
2022-09-12T23:11:17.441Z,9.22
2022-09-12T23:13:50.632Z,9.18
2022-09-12T23:16:25.208Z,9.20
2022-09-12T23:18:54.484Z,9.10
2022-09-12T23:21:26.181Z,9.22
2022-09-12T23:23:54.193Z,9.27
2022-09-12T23:26:30.684Z,9.28
2022-09-12T23:29:05.730Z,9.38
2022-09-12T23:31:49.788Z,9.40
2022-09-12T23:34:21.155Z,9.51
2022-09-12T23:36:49.256Z,9.55
2022-09-12T23:39:17.176Z,9.59
2022-09-12T23:41:45.020Z,9.66
2022-09-12T23:44:13.162Z,9.70
2022-09-12T23:46:41.063Z,9.70
2022-09-12T23:49:09.341Z,9.70
2022-09-12T23:51:38.836Z,9.74
2022-09-12T23:54:06.746Z,9.79
2022-09-12T23:56:34.660Z,9.55
2022-09-12T23:59:02.987Z,9.78
